createdAt,value
2018-04-08T00:00:08.152Z,27.61
2018-04-08T00:02:36.543Z,28.29
2018-04-08T00:05:04.927Z,28.97
2018-04-08T00:07:33.302Z,29.15
2018-04-08T00:10:01.671Z,28.59
2018-04-08T00:12:30.307Z,29.17
2018-04-08T00:14:58.680Z,29.42
2018-04-08T00:17:27.081Z,29.78
2018-04-08T00:19:55.448Z,28.32
2018-04-08T00:22:24.708Z,28.92
2018-04-08T00:24:53.167Z,28.86
2018-04-08T00:27:21.564Z,29.33
2018-04-08T00:29:49.928Z,29.28
2018-04-08T00:32:18.294Z,28.36
2018-04-08T00:34:46.674Z,29.21
2018-04-08T00:37:15.160Z,29.93
2018-04-08T00:39:43.554Z,29.72
2018-04-08T00:42:11.915Z,28.94
2018-04-08T00:44:40.294Z,29.87
2018-04-08T00:47:08.676Z,29.03
2018-04-08T00:49:37.192Z,29.82
2018-04-08T00:52:05.555Z,28.87
2018-04-08T00:54:33.948Z,28.71
2018-04-08T00:57:02.043Z,29.94
2018-04-08T00:59:32.047Z,30.84
2018-04-08T01:02:07.677Z,29.69
2018-04-08T01:04:35.752Z,29.70
2018-04-08T01:07:06.803Z,29.43
2018-04-08T01:09:34.876Z,30.48
2018-04-08T01:12:07.928Z,29.89
2018-04-08T01:14:36.320Z,29.83
2018-04-08T01:17:04.463Z,31.35
2018-04-08T01:19:45.757Z,30.64
2018-04-08T01:22:19.927Z,30.82
2018-04-08T01:24:48.295Z,30.90
2018-04-08T01:27:17.776Z,29.99
2018-04-08T01:29:46.145Z,30.81
2018-04-08T01:32:14.518Z,31.23
2018-04-08T01:34:42.921Z,30.65
2018-04-08T01:37:11.371Z,30.64
2018-04-08T01:39:39.751Z,30.64
2018-04-08T01:42:08.192Z,31.40
2018-04-08T01:44:36.555Z,31.04
2018-04-08T01:47:04.972Z,30.95
2018-04-08T01:49:33.377Z,31.20
2018-04-08T01:52:01.742Z,31.98
2018-04-08T01:54:30.134Z,31.87
2018-04-08T01:56:58.529Z,31.57
2018-04-08T01:59:26.959Z,32.04
2018-04-08T02:01:55.326Z,31.10
2018-04-08T02:04:23.720Z,31.60
2018-04-08T02:06:52.204Z,31.41
2018-04-08T02:09:20.616Z,31.85
2018-04-08T02:11:49.055Z,31.95
2018-04-08T02:14:17.427Z,31.76
2018-04-08T02:16:45.820Z,31.65
2018-04-08T02:19:14.189Z,31.57
2018-04-08T02:21:42.709Z,31.56
2018-04-08T02:24:11.104Z,31.08
2018-04-08T02:26:39.525Z,30.94
2018-04-08T02:29:07.881Z,31.01
2018-04-08T02:31:36.325Z,30.56
2018-04-08T02:34:04.689Z,30.85
2018-04-08T02:36:33.120Z,29.92
2018-04-08T02:39:01.521Z,29.76
2018-04-08T02:41:29.888Z,29.18
2018-04-08T02:43:58.280Z,29.94
2018-04-08T02:46:26.702Z,29.97
2018-04-08T02:48:55.096Z,30.55
2018-04-08T02:51:23.456Z,32.28
2018-04-08T02:53:51.892Z,30.85
2018-04-08T02:56:20.263Z,33.72
2018-04-08T02:58:48.649Z,33.61
2018-04-08T03:01:17.384Z,33.93
2018-04-08T03:03:45.789Z,34.43
2018-04-08T03:06:14.198Z,34.26
2018-04-08T03:08:42.591Z,33.40
2018-04-08T03:11:10.987Z,33.11
2018-04-08T03:13:39.449Z,33.89
2018-04-08T03:16:07.824Z,33.38
2018-04-08T03:18:36.187Z,35.35
2018-04-08T03:21:04.595Z,33.76
2018-04-08T03:23:32.961Z,35.20
2018-04-08T03:26:01.481Z,35.13
2018-04-08T03:28:29.871Z,34.03
2018-04-08T03:30:58.299Z,34.52
2018-04-08T03:33:26.693Z,33.97
2018-04-08T03:35:55.056Z,32.98
2018-04-08T03:38:23.409Z,32.86
2018-04-08T03:40:51.770Z,31.91
2018-04-08T03:43:20.144Z,31.92
2018-04-08T03:45:48.527Z,32.46
2018-04-08T03:48:16.955Z,33.22
2018-04-08T03:50:45.335Z,33.15
2018-04-08T03:53:13.712Z,33.08
2018-04-08T03:55:42.070Z,33.05
2018-04-08T03:58:10.427Z,33.21
2018-04-08T04:00:38.844Z,33.55
2018-04-08T04:03:07.196Z,34.08
2018-04-08T04:05:35.548Z,34.71
2018-04-08T04:08:03.912Z,34.36
2018-04-08T04:10:32.300Z,34.81
2018-04-08T04:13:00.704Z,35.21
2018-04-08T04:15:29.067Z,35.77
2018-04-08T04:17:57.445Z,37.74
2018-04-08T04:20:38.370Z,37.08
2018-04-08T04:23:18.544Z,36.87
2018-04-08T04:25:55.679Z,37.57
2018-04-08T04:28:24.098Z,38.04
2018-04-08T04:30:52.471Z,38.52
2018-04-08T04:33:20.894Z,38.37
2018-04-08T04:35:49.288Z,38.29
2018-04-08T04:38:17.687Z,38.67
2018-04-08T04:40:46.104Z,39.01
2018-04-08T04:43:14.588Z,39.11
2018-04-08T04:45:43.057Z,39.27
2018-04-08T04:48:11.427Z,39.99
2018-04-08T04:50:39.826Z,39.96
2018-04-08T04:53:08.212Z,40.00
2018-04-08T04:55:36.609Z,40.07
2018-04-08T04:58:05.000Z,40.89
2018-04-08T05:00:33.396Z,40.63
2018-04-08T05:03:01.830Z,40.33
2018-04-08T05:05:30.219Z,39.02
2018-04-08T05:07:58.632Z,39.37
2018-04-08T05:10:27.009Z,39.36
2018-04-08T05:12:55.571Z,39.62
2018-04-08T05:15:23.964Z,39.37
2018-04-08T05:17:52.362Z,40.17
2018-04-08T05:20:20.820Z,40.48
2018-04-08T05:22:49.200Z,39.32
2018-04-08T05:25:17.618Z,40.41
2018-04-08T05:27:46.002Z,40.68
2018-04-08T05:30:14.376Z,40.00
2018-04-08T05:32:42.866Z,39.78
2018-04-08T05:35:11.289Z,38.80
2018-04-08T05:37:39.689Z,38.33
2018-04-08T05:40:08.060Z,37.87
2018-04-08T05:42:36.660Z,37.78
2018-04-08T05:45:05.144Z,39.18
2018-04-08T05:47:33.500Z,38.37
2018-04-08T05:50:01.989Z,37.93
2018-04-08T05:52:30.363Z,36.80
2018-04-08T05:54:58.762Z,36.63
2018-04-08T05:57:27.217Z,37.18
2018-04-08T05:59:55.689Z,36.50
2018-04-08T06:02:24.097Z,35.95
2018-04-08T06:04:52.549Z,35.29
2018-04-08T06:07:20.924Z,35.22
2018-04-08T06:09:49.296Z,35.13
2018-04-08T06:12:17.689Z,34.75
2018-04-08T06:14:46.176Z,34.52
2018-04-08T06:17:14.639Z,33.60
2018-04-08T06:19:43.106Z,33.08
2018-04-08T06:22:11.509Z,32.80
2018-04-08T06:24:39.903Z,30.52
2018-04-08T06:27:08.291Z,29.03
2018-04-08T06:29:36.686Z,25.99
2018-04-08T06:32:05.068Z,24.28
2018-04-08T06:34:33.543Z,23.42
2018-04-08T06:37:02.038Z,22.95
2018-04-08T06:39:30.487Z,20.91
2018-04-08T06:41:59.038Z,20.43
2018-04-08T06:44:28.307Z,20.28
2018-04-08T06:46:56.720Z,18.45
2018-04-08T06:49:25.164Z,18.14
2018-04-08T06:51:54.400Z,17.66
2018-04-08T06:54:22.776Z,17.04
2018-04-08T06:56:51.342Z,18.31
2018-04-08T06:59:19.744Z,16.08
2018-04-08T07:01:48.129Z,15.83
2018-04-08T07:04:16.546Z,14.52
2018-04-08T07:06:44.940Z,14.28
2018-04-08T07:09:13.391Z,14.02
2018-04-08T07:11:41.764Z,13.52
2018-04-08T07:14:10.168Z,13.85
2018-04-08T07:16:38.538Z,12.97
2018-04-08T07:19:06.957Z,12.64
2018-04-08T07:21:35.335Z,11.99
2018-04-08T07:24:03.723Z,11.64
2018-04-08T07:26:32.155Z,11.99
2018-04-08T07:29:00.789Z,12.12
2018-04-08T07:31:29.164Z,11.99
2018-04-08T07:33:57.536Z,11.19
2018-04-08T07:36:25.936Z,10.68
2018-04-08T07:38:54.511Z,11.12
2018-04-08T07:41:22.896Z,12.11
2018-04-08T07:43:51.256Z,11.97
2018-04-08T07:46:19.624Z,12.97
2018-04-08T07:48:48.019Z,13.12
2018-04-08T07:51:16.445Z,12.86
2018-04-08T07:53:44.809Z,11.69
2018-04-08T07:56:13.213Z,11.64
2018-04-08T07:58:41.607Z,11.85
2018-04-08T08:01:09.977Z,11.62
2018-04-08T08:03:38.467Z,11.28
2018-04-08T08:06:06.839Z,11.09
2018-04-08T08:08:35.241Z,11.40
2018-04-08T08:11:03.639Z,11.03
2018-04-08T08:13:32.940Z,11.43
2018-04-08T08:16:01.465Z,11.30
2018-04-08T08:18:30.062Z,11.33
2018-04-08T08:20:58.636Z,11.61
2018-04-08T08:23:27.070Z,11.32
2018-04-08T08:25:55.482Z,12.32
2018-04-08T08:28:24.035Z,12.62
2018-04-08T08:30:52.451Z,12.02
2018-04-08T08:33:20.811Z,11.75
2018-04-08T08:35:49.216Z,9.86
2018-04-08T08:38:17.582Z,9.65
2018-04-08T08:40:46.007Z,10.27
2018-04-08T08:43:14.425Z,11.20
2018-04-08T08:45:42.786Z,11.25
2018-04-08T08:48:11.309Z,12.53
2018-04-08T08:50:39.689Z,12.68
2018-04-08T08:53:08.109Z,13.03
2018-04-08T08:55:36.476Z,12.54
2018-04-08T08:58:04.846Z,12.52
2018-04-08T09:00:34.145Z,11.52
2018-04-08T09:03:02.646Z,11.54
2018-04-08T09:05:31.175Z,12.18
2018-04-08T09:07:59.606Z,12.81
2018-04-08T09:10:27.988Z,11.78
2018-04-08T09:12:56.412Z,12.54
2018-04-08T09:15:24.828Z,13.44
2018-04-08T09:17:53.214Z,12.83
2018-04-08T09:20:26.704Z,12.48
2018-04-08T09:22:57.699Z,11.50
2018-04-08T09:25:26.664Z,12.08
2018-04-08T09:27:58.804Z,11.31
2018-04-08T09:30:27.160Z,11.79
2018-04-08T09:32:55.556Z,11.53
2018-04-08T09:35:23.942Z,11.41
2018-04-08T09:37:52.311Z,11.25
2018-04-08T09:40:20.686Z,11.85
2018-04-08T09:42:49.051Z,11.76
2018-04-08T09:45:17.519Z,12.39
2018-04-08T09:47:45.904Z,12.03
2018-04-08T09:50:14.281Z,12.06
2018-04-08T09:52:42.647Z,11.71
2018-04-08T09:55:11.016Z,12.98
2018-04-08T09:57:41.261Z,12.52
2018-04-08T10:00:21.393Z,12.46
2018-04-08T10:02:55.583Z,11.84
2018-04-08T10:05:24.165Z,11.05
2018-04-08T10:07:52.532Z,11.36
2018-04-08T10:10:20.906Z,12.37
2018-04-08T10:12:49.352Z,12.14
2018-04-08T10:15:17.716Z,11.98
2018-04-08T10:17:46.246Z,12.59
2018-04-08T10:20:14.661Z,12.26
2018-04-08T10:22:43.151Z,11.93
2018-04-08T10:25:12.455Z,12.78
2018-04-08T10:27:40.933Z,11.73
2018-04-08T10:30:10.243Z,11.80
2018-04-08T10:32:38.618Z,11.98
2018-04-08T10:35:06.990Z,13.81
2018-04-08T10:37:35.386Z,12.77
2018-04-08T10:40:03.856Z,12.97
2018-04-08T10:42:32.288Z,12.69
2018-04-08T10:45:00.710Z,13.03
2018-04-08T10:47:29.196Z,12.66
2018-04-08T10:49:57.669Z,13.02
2018-04-08T10:52:26.065Z,11.56
2018-04-08T10:54:54.460Z,12.43
2018-04-08T10:57:22.904Z,12.32
2018-04-08T10:59:51.307Z,14.08
2018-04-08T11:02:19.861Z,13.79
2018-04-08T11:04:48.271Z,14.26
2018-04-08T11:07:16.683Z,15.30
2018-04-08T11:09:45.101Z,14.91
2018-04-08T11:12:13.515Z,16.09
2018-04-08T11:14:41.982Z,15.78
2018-04-08T11:17:10.370Z,16.13
2018-04-08T11:19:38.770Z,16.41
2018-04-08T11:22:07.182Z,17.38
2018-04-08T11:24:35.622Z,16.73
2018-04-08T11:27:04.020Z,17.01
2018-04-08T11:29:32.415Z,16.55
2018-04-08T11:32:00.998Z,15.95
2018-04-08T11:34:29.437Z,14.83
2018-04-08T11:36:59.785Z,14.28
2018-04-08T11:39:28.192Z,15.69
2018-04-08T11:41:57.000Z,16.24
2018-04-08T11:44:25.536Z,15.80
2018-04-08T11:46:53.944Z,16.38
2018-04-08T11:49:22.365Z,16.35
2018-04-08T11:51:50.752Z,16.53
2018-04-08T11:54:19.165Z,17.54
2018-04-08T11:56:48.564Z,17.72
2018-04-08T11:59:17.112Z,18.22
2018-04-08T12:01:45.536Z,17.27
2018-04-08T12:04:13.950Z,17.64
2018-04-08T12:06:42.479Z,17.90
2018-04-08T12:09:10.936Z,18.08
2018-04-08T12:11:39.334Z,18.03
2018-04-08T12:14:07.912Z,17.48
2018-04-08T12:16:36.334Z,18.02
2018-04-08T12:19:04.735Z,18.05
2018-04-08T12:21:33.164Z,18.30
2018-04-08T12:24:01.595Z,18.79
2018-04-08T12:26:31.564Z,18.69
2018-04-08T12:28:59.969Z,20.58
2018-04-08T12:31:28.350Z,20.35
2018-04-08T12:33:56.736Z,18.85
2018-04-08T12:36:25.104Z,19.74
2018-04-08T12:38:53.566Z,19.11
2018-04-08T12:41:21.927Z,20.53
2018-04-08T12:43:50.323Z,20.69
2018-04-08T12:46:18.851Z,19.08
2018-04-08T12:48:47.247Z,19.42
2018-04-08T12:51:15.716Z,20.19
2018-04-08T12:53:44.106Z,19.94
2018-04-08T12:56:12.486Z,20.04
2018-04-08T12:58:40.900Z,19.73
2018-04-08T13:01:09.496Z,19.71
2018-04-08T13:03:37.967Z,19.86
2018-04-08T13:06:06.352Z,19.19
2018-04-08T13:08:34.758Z,19.05
2018-04-08T13:11:03.164Z,18.53
2018-04-08T13:13:31.689Z,18.41
2018-04-08T13:16:00.152Z,18.77
2018-04-08T13:18:28.540Z,18.92
2018-04-08T13:20:56.941Z,19.40
2018-04-08T13:23:25.413Z,19.40
2018-04-08T13:25:53.824Z,19.30
2018-04-08T13:28:22.273Z,19.73
2018-04-08T13:30:50.682Z,19.28
2018-04-08T13:33:19.145Z,18.84
2018-04-08T13:35:47.636Z,18.79
2018-04-08T13:38:16.060Z,18.98
2018-04-08T13:40:44.611Z,19.96
2018-04-08T13:43:13.041Z,19.44
2018-04-08T13:45:41.501Z,19.39
2018-04-08T13:48:09.918Z,18.97
2018-04-08T13:50:38.369Z,19.09
2018-04-08T13:53:06.861Z,19.51
2018-04-08T13:55:35.342Z,18.69
2018-04-08T13:58:03.801Z,19.38
2018-04-08T14:00:32.270Z,19.61
2018-04-08T14:03:03.502Z,19.06
2018-04-08T14:05:31.947Z,18.76
2018-04-08T14:08:00.318Z,19.62
2018-04-08T14:10:28.712Z,19.49
2018-04-08T14:12:57.267Z,20.41
2018-04-08T14:15:25.664Z,20.72
2018-04-08T14:17:54.216Z,21.36
2018-04-08T14:20:22.645Z,21.07
2018-04-08T14:22:51.039Z,20.50
2018-04-08T14:25:19.491Z,20.07
2018-04-08T14:27:47.903Z,21.02
2018-04-08T14:30:16.452Z,20.60
2018-04-08T14:32:44.876Z,21.29
2018-04-08T14:35:13.279Z,21.22
2018-04-08T14:37:41.860Z,21.69
2018-04-08T14:40:10.297Z,21.43
2018-04-08T14:42:38.823Z,21.15
2018-04-08T14:45:07.390Z,20.96
2018-04-08T14:47:35.794Z,20.96
2018-04-08T14:50:04.189Z,21.73
2018-04-08T14:52:32.662Z,20.80
2018-04-08T14:55:01.316Z,21.86
2018-04-08T14:57:29.817Z,22.19
2018-04-08T14:59:58.247Z,21.62
2018-04-08T15:02:26.628Z,21.22
2018-04-08T15:04:55.063Z,21.51
2018-04-08T15:07:23.538Z,20.69
2018-04-08T15:09:52.024Z,21.44
2018-04-08T15:12:20.522Z,22.00
2018-04-08T15:14:48.940Z,22.30
2018-04-08T15:17:17.355Z,21.73
2018-04-08T15:19:45.863Z,21.19
2018-04-08T15:22:14.287Z,21.05
2018-04-08T15:24:42.767Z,20.60
2018-04-08T15:27:11.205Z,21.35
2018-04-08T15:29:39.586Z,20.82
2018-04-08T15:32:08.014Z,21.20
2018-04-08T15:34:36.395Z,21.26
2018-04-08T15:37:04.821Z,21.59
2018-04-08T15:39:33.229Z,22.13
2018-04-08T15:42:01.839Z,22.07
2018-04-08T15:44:30.269Z,22.54
2018-04-08T15:46:58.698Z,22.64
2018-04-08T15:49:27.094Z,22.54
2018-04-08T15:51:55.553Z,22.27
2018-04-08T15:54:24.424Z,22.38
2018-04-08T15:56:52.836Z,21.99
2018-04-08T15:59:21.313Z,21.36
2018-04-08T16:01:49.731Z,21.40
2018-04-08T16:04:18.148Z,22.55
2018-04-08T16:06:46.607Z,21.89
2018-04-08T16:09:15.175Z,22.34
2018-04-08T16:11:43.604Z,23.25
2018-04-08T16:14:11.999Z,22.59
2018-04-08T16:16:40.401Z,22.21
2018-04-08T16:19:08.792Z,22.94
2018-04-08T16:21:37.185Z,23.95
2018-04-08T16:24:05.590Z,23.81
2018-04-08T16:26:34.039Z,23.41
2018-04-08T16:29:02.451Z,23.93
2018-04-08T16:31:30.881Z,24.25
2018-04-08T16:33:59.284Z,23.89
2018-04-08T16:36:27.664Z,24.05
2018-04-08T16:38:56.070Z,24.99
2018-04-08T16:41:25.351Z,24.69
2018-04-08T16:43:53.816Z,24.58
2018-04-08T16:46:22.223Z,25.04
2018-04-08T16:48:50.680Z,24.88
2018-04-08T16:51:19.072Z,25.03
2018-04-08T16:53:47.459Z,24.83
2018-04-08T16:56:16.052Z,24.65
2018-04-08T16:58:44.447Z,24.37
2018-04-08T17:01:12.901Z,24.57
2018-04-08T17:03:42.514Z,24.69
2018-04-08T17:06:10.857Z,25.62
2018-04-08T17:08:39.577Z,25.33
2018-04-08T17:11:07.932Z,24.78
2018-04-08T17:13:36.297Z,25.78
2018-04-08T17:16:04.717Z,25.72
2018-04-08T17:18:33.152Z,25.77
2018-04-08T17:21:01.534Z,26.82
2018-04-08T17:23:30.178Z,27.37
2018-04-08T17:25:58.558Z,27.97
2018-04-08T17:28:26.928Z,29.06
2018-04-08T17:30:55.437Z,29.63
2018-04-08T17:33:23.833Z,30.17
2018-04-08T17:35:52.332Z,30.50
2018-04-08T17:38:20.716Z,30.77
2018-04-08T17:40:49.100Z,30.43
2018-04-08T17:43:20.031Z,31.12
2018-04-08T17:45:48.499Z,31.67
2018-04-08T17:48:16.933Z,31.70
2018-04-08T17:50:45.316Z,33.19
2018-04-08T17:53:13.748Z,33.55
2018-04-08T17:55:42.917Z,33.12
2018-04-08T17:58:11.318Z,33.13
2018-04-08T18:00:39.694Z,32.10
2018-04-08T18:03:08.081Z,33.39
2018-04-08T18:05:36.578Z,32.50
2018-04-08T18:08:04.980Z,33.10
2018-04-08T18:10:33.433Z,34.21
2018-04-08T18:13:01.822Z,35.70
2018-04-08T18:15:30.243Z,35.62
2018-04-08T18:17:58.726Z,35.87
2018-04-08T18:20:27.130Z,36.44
2018-04-08T18:22:55.601Z,37.01
2018-04-08T18:25:24.064Z,36.96
2018-04-08T18:27:52.675Z,37.98
2018-04-08T18:30:21.878Z,37.49
2018-04-08T18:32:50.421Z,37.72
2018-04-08T18:35:18.828Z,38.67
2018-04-08T18:37:47.264Z,38.79
2018-04-08T18:40:15.657Z,38.64
2018-04-08T18:42:44.119Z,38.61
2018-04-08T18:45:12.543Z,38.61
2018-04-08T18:47:40.923Z,38.84
2018-04-08T18:50:09.396Z,39.60
2018-04-08T18:52:37.784Z,39.43
2018-04-08T18:55:06.489Z,39.75
2018-04-08T18:57:35.361Z,39.92
2018-04-08T19:00:04.013Z,39.68
2018-04-08T19:02:32.400Z,39.50
2018-04-08T19:05:00.804Z,39.88
2018-04-08T19:07:33.359Z,40.11
2018-04-08T19:10:02.799Z,39.85
2018-04-08T19:12:31.444Z,40.56
2018-04-08T19:15:05.844Z,39.77
2018-04-08T19:20:49.857Z,40.27
2018-04-08T19:23:18.284Z,40.67
2018-04-08T19:25:46.648Z,41.03
2018-04-08T19:28:15.059Z,41.81
2018-04-08T19:30:53.734Z,42.59
2018-04-08T19:33:22.438Z,41.86
2018-04-08T19:35:50.935Z,41.83
2018-04-08T19:38:19.349Z,41.79
2018-04-08T19:40:47.946Z,42.64
2018-04-08T19:43:16.410Z,43.32
2018-04-08T19:45:44.811Z,41.68
2018-04-08T19:48:13.230Z,41.87
2018-04-08T19:50:41.628Z,42.74
2018-04-08T19:53:10.229Z,43.41
2018-04-08T19:55:38.648Z,43.05
2018-04-08T19:58:07.237Z,43.21
2018-04-08T20:00:35.795Z,43.31
2018-04-08T20:03:05.510Z,43.73
2018-04-08T20:05:34.159Z,42.97
2018-04-08T20:08:03.412Z,42.84
2018-04-08T20:10:31.965Z,43.75
2018-04-08T20:13:00.875Z,43.82
2018-04-08T20:15:30.344Z,43.79
2018-04-08T20:17:58.821Z,42.90
2018-04-08T20:20:27.243Z,43.74
2018-04-08T20:22:55.640Z,42.97
2018-04-08T20:25:24.112Z,42.63
2018-04-08T20:27:52.646Z,43.40
2018-04-08T20:30:21.494Z,43.37
2018-04-08T20:32:49.929Z,42.84
2018-04-08T20:35:18.289Z,42.65
2018-04-08T20:37:46.644Z,43.45
2018-04-08T20:40:15.065Z,43.61
2018-04-08T20:42:43.461Z,42.99
2018-04-08T20:45:11.876Z,43.75
2018-04-08T20:47:40.252Z,44.01
2018-04-08T20:50:08.706Z,43.95
2018-04-08T20:52:37.288Z,44.46
2018-04-08T20:55:07.006Z,43.98
2018-04-08T20:57:35.452Z,43.89
2018-04-08T21:00:05.874Z,44.05
2018-04-08T21:02:34.633Z,43.57
2018-04-08T21:05:03.050Z,43.85
2018-04-08T21:07:31.603Z,43.84
2018-04-08T21:12:41.199Z,44.16
2018-04-08T21:15:09.605Z,44.23
2018-04-08T21:17:37.958Z,45.02
2018-04-08T21:20:07.228Z,45.52
2018-04-08T21:22:35.750Z,44.25
2018-04-08T21:25:04.180Z,44.77
2018-04-08T21:27:32.570Z,45.22
2018-04-08T21:30:00.967Z,44.60
2018-04-08T21:32:29.600Z,44.49
2018-04-08T21:34:58.599Z,44.86
2018-04-08T21:37:27.248Z,45.72
2018-04-08T21:39:55.863Z,45.16
2018-04-08T21:42:24.298Z,44.60
2018-04-08T21:44:52.676Z,44.57
2018-04-08T21:47:21.083Z,44.98
2018-04-08T21:49:49.484Z,44.69
2018-04-08T21:52:18.033Z,44.73
2018-04-08T21:54:46.418Z,46.10
2018-04-08T21:57:14.815Z,45.10
2018-04-08T21:59:43.192Z,45.53
2018-04-08T22:02:12.263Z,45.12
2018-04-08T22:04:40.663Z,44.89
2018-04-08T22:07:09.051Z,45.79
2018-04-08T22:09:37.475Z,45.41
2018-04-08T22:12:05.868Z,46.29
2018-04-08T22:14:34.311Z,47.23
2018-04-08T22:17:02.735Z,47.33
2018-04-08T22:19:31.169Z,45.76
2018-04-08T22:21:59.708Z,46.57
2018-04-08T22:24:28.065Z,46.54
2018-04-08T22:26:56.502Z,46.54
2018-04-08T22:29:24.877Z,46.50
2018-04-08T22:31:53.241Z,45.99
2018-04-08T22:34:21.780Z,46.31
2018-04-08T22:36:50.145Z,46.94
2018-04-08T22:39:18.504Z,46.81
2018-04-08T22:41:46.891Z,46.42
2018-04-08T22:44:15.294Z,46.79
2018-04-08T22:46:43.692Z,47.11
2018-04-08T22:49:12.148Z,47.04
2018-04-08T22:51:40.677Z,46.30
2018-04-08T22:54:09.053Z,46.09
2018-04-08T22:56:37.424Z,47.08
2018-04-08T22:59:05.813Z,46.65
2018-04-08T23:01:34.209Z,46.56
2018-04-08T23:04:02.657Z,47.43
2018-04-08T23:06:31.116Z,48.55
2018-04-08T23:08:59.478Z,47.87
2018-04-08T23:11:27.925Z,47.42
2018-04-08T23:13:56.285Z,48.34
2018-04-08T23:16:24.712Z,48.42
2018-04-08T23:18:53.069Z,48.17
2018-04-08T23:21:21.424Z,46.96
2018-04-08T23:23:49.796Z,46.79
2018-04-08T23:26:18.160Z,47.06
2018-04-08T23:28:46.583Z,46.58
2018-04-08T23:31:15.053Z,47.11
2018-04-08T23:33:43.416Z,47.72
2018-04-08T23:36:11.773Z,47.14
2018-04-08T23:38:40.224Z,47.28
2018-04-08T23:41:08.751Z,47.83
2018-04-08T23:43:37.114Z,48.17
2018-04-08T23:46:05.475Z,48.93
2018-04-08T23:48:33.832Z,48.54
2018-04-08T23:51:02.255Z,48.20
2018-04-08T23:53:30.635Z,48.60
2018-04-08T23:55:59.099Z,49.22
2018-04-08T23:58:27.483Z,48.09
